createdAt,value
2023-07-03T00:00:15.663Z,21.88
2023-07-03T00:02:43.776Z,22.88
2023-07-03T00:05:11.561Z,25.27
2023-07-03T00:07:39.652Z,21.85
2023-07-03T00:10:07.429Z,24.63
2023-07-03T00:12:34.043Z,25.38
2023-07-03T00:15:00.801Z,26.75
2023-07-03T00:17:27.532Z,23.98
2023-07-03T00:19:54.319Z,21.25
2023-07-03T00:22:22.147Z,20.23
2023-07-03T00:24:48.772Z,28.05
2023-07-03T00:27:15.554Z,21.60
2023-07-03T00:29:42.145Z,27.38
2023-07-03T00:32:08.799Z,20.55
2023-07-03T00:34:35.272Z,24.67
2023-07-03T00:37:03.256Z,24.58
2023-07-03T00:39:29.938Z,26.45
2023-07-03T00:41:56.566Z,23.48
2023-07-03T00:44:24.432Z,31.02
2023-07-03T00:46:53.082Z,22.17
2023-07-03T00:49:21.694Z,25.08
2023-07-03T00:51:53.705Z,25.83
2023-07-03T00:54:20.616Z,26.98
2023-07-03T00:56:47.689Z,26.00
2023-07-03T00:59:16.220Z,25.58
2023-07-03T01:01:50.352Z,23.85
2023-07-03T01:04:31.593Z,26.42
2023-07-03T01:07:09.331Z,28.15
2023-07-03T01:09:44.582Z,25.00
2023-07-03T01:12:11.938Z,26.23
2023-07-03T01:14:40.605Z,26.77
2023-07-03T01:17:12.498Z,24.88
2023-07-03T01:19:45.520Z,27.48
2023-07-03T01:22:24.457Z,23.13
2023-07-03T01:25:16.290Z,23.48
2023-07-03T01:28:05.084Z,27.00
2023-07-03T01:30:56.068Z,23.90
2023-07-03T01:33:45.828Z,22.42
2023-07-03T01:36:34.475Z,26.23
2023-07-03T01:39:21.529Z,27.23
2023-07-03T01:41:49.449Z,26.20
2023-07-03T01:44:16.383Z,36.65
2023-07-03T01:46:42.952Z,25.25
2023-07-03T01:49:14.844Z,28.85
2023-07-03T01:51:59.280Z,25.90
2023-07-03T01:54:32.273Z,30.02
2023-07-03T01:57:01.290Z,20.98
2023-07-03T01:59:30.944Z,24.92
2023-07-03T02:02:06.202Z,23.88
2023-07-03T02:04:44.056Z,26.50
2023-07-03T02:07:12.916Z,25.88
2023-07-03T02:09:41.108Z,26.70
2023-07-03T02:12:11.022Z,26.50
2023-07-03T02:14:39.171Z,25.40
2023-07-03T02:17:07.541Z,26.83
2023-07-03T02:19:34.413Z,25.90
2023-07-03T02:22:01.579Z,25.23
2023-07-03T02:24:28.357Z,36.70
2023-07-03T02:26:55.385Z,26.10
2023-07-03T02:29:21.860Z,25.48
2023-07-03T02:31:48.448Z,23.60
2023-07-03T02:34:15.873Z,45.38
2023-07-03T02:36:42.644Z,25.13
2023-07-03T02:39:10.565Z,26.60
2023-07-03T02:41:37.382Z,26.00
2023-07-03T02:44:04.227Z,20.92
2023-07-03T02:46:33.345Z,25.05
2023-07-03T02:49:00.038Z,30.38
2023-07-03T02:51:27.149Z,23.38
2023-07-03T02:53:57.467Z,20.63
2023-07-03T02:56:24.450Z,26.73
2023-07-03T02:58:51.012Z,26.02
2023-07-03T03:01:23.293Z,27.27
2023-07-03T03:03:50.635Z,23.75
2023-07-03T03:06:17.371Z,20.13
2023-07-03T03:08:43.964Z,24.15
2023-07-03T03:11:10.761Z,23.60
2023-07-03T03:13:37.883Z,23.05
2023-07-03T03:16:04.964Z,23.95
2023-07-03T03:18:31.579Z,22.33
2023-07-03T03:20:58.372Z,26.90
2023-07-03T03:23:24.943Z,25.38
2023-07-03T03:25:51.770Z,20.98
2023-07-03T03:28:18.476Z,25.92
2023-07-03T03:30:46.703Z,26.75
2023-07-03T03:33:13.481Z,26.48
2023-07-03T03:35:40.141Z,26.83
2023-07-03T03:38:06.735Z,29.30
2023-07-03T03:40:33.468Z,23.95
2023-07-03T03:43:00.145Z,20.10
2023-07-03T03:45:26.638Z,27.05
2023-07-03T03:47:53.668Z,25.73
2023-07-03T03:50:20.308Z,27.83
2023-07-03T03:52:47.083Z,29.90
2023-07-03T03:55:13.829Z,21.85
2023-07-03T03:57:40.502Z,24.58
2023-07-03T04:00:16.560Z,26.55
2023-07-03T04:02:44.313Z,33.28
2023-07-03T04:05:12.503Z,22.33
2023-07-03T04:07:40.053Z,27.92
2023-07-03T04:10:07.225Z,27.65
2023-07-03T04:12:33.840Z,22.63
2023-07-03T04:15:00.393Z,28.48
2023-07-03T04:17:27.035Z,27.17
2023-07-03T04:19:53.523Z,25.60
2023-07-03T04:22:20.196Z,24.35
2023-07-03T04:24:46.667Z,29.65
2023-07-03T04:27:13.231Z,27.73
2023-07-03T04:29:39.808Z,24.98
2023-07-03T04:32:06.584Z,23.38
2023-07-03T04:34:33.229Z,25.13
2023-07-03T04:36:59.807Z,19.50
2023-07-03T04:39:26.765Z,19.67
2023-07-03T04:41:53.385Z,29.63
2023-07-03T04:44:20.004Z,31.10
2023-07-03T04:46:47.213Z,23.85
2023-07-03T04:49:13.808Z,24.30
2023-07-03T04:51:41.049Z,30.88
2023-07-03T04:54:07.616Z,23.55
2023-07-03T04:56:35.266Z,23.67
2023-07-03T04:59:01.844Z,26.42
2023-07-03T05:01:31.198Z,27.15
2023-07-03T05:03:58.340Z,19.90
2023-07-03T05:06:25.673Z,26.00
2023-07-03T05:08:52.507Z,25.77
2023-07-03T05:11:19.169Z,29.10
2023-07-03T05:13:45.660Z,24.45
2023-07-03T05:16:12.168Z,25.88
2023-07-03T05:18:38.801Z,28.65
2023-07-03T05:21:07.410Z,30.05
2023-07-03T05:23:34.075Z,23.10
2023-07-03T05:26:00.552Z,27.00
2023-07-03T05:28:27.497Z,25.48
2023-07-03T05:30:59.646Z,20.88
2023-07-03T05:33:28.601Z,28.65
2023-07-03T05:35:56.092Z,24.75
2023-07-03T05:38:22.994Z,23.70
2023-07-03T05:40:51.375Z,25.33
2023-07-03T05:43:19.639Z,27.33
2023-07-03T05:45:49.511Z,31.40
2023-07-03T05:48:16.708Z,24.08
2023-07-03T05:50:43.304Z,26.55
2023-07-03T05:53:10.376Z,26.33
2023-07-03T05:55:36.900Z,24.23
2023-07-03T05:58:04.054Z,26.67
2023-07-03T06:00:32.015Z,26.85
2023-07-03T06:03:00.417Z,25.23
2023-07-03T06:05:27.309Z,28.38
2023-07-03T06:07:53.973Z,26.13
2023-07-03T06:10:20.524Z,22.73
2023-07-03T06:12:47.097Z,23.63
2023-07-03T06:15:13.592Z,28.23
2023-07-03T06:17:41.876Z,25.05
2023-07-03T06:20:11.676Z,25.55
2023-07-03T06:22:42.907Z,24.98
2023-07-03T06:25:10.962Z,28.67
2023-07-03T06:27:37.644Z,29.80
2023-07-03T06:30:04.719Z,25.55
2023-07-03T06:32:31.425Z,22.63
2023-07-03T06:34:58.067Z,25.13
2023-07-03T06:37:24.773Z,22.63
2023-07-03T06:39:51.247Z,31.55
2023-07-03T06:42:17.761Z,23.83
2023-07-03T06:44:54.171Z,22.15
2023-07-03T06:47:20.682Z,18.00
2023-07-03T06:49:47.206Z,26.60
2023-07-03T06:52:13.694Z,21.80
2023-07-03T06:54:40.296Z,29.83
2023-07-03T06:57:06.846Z,19.65
2023-07-03T06:59:33.418Z,21.63
2023-07-03T07:01:59.983Z,24.00
2023-07-03T07:04:29.570Z,20.17
2023-07-03T07:06:56.998Z,23.55
2023-07-03T07:09:23.968Z,22.85
2023-07-03T07:11:50.694Z,22.98
2023-07-03T07:14:18.621Z,18.42
2023-07-03T07:16:45.281Z,20.63
2023-07-03T07:19:12.958Z,16.88
2023-07-03T07:21:42.324Z,23.13
2023-07-03T07:24:23.342Z,18.58
2023-07-03T07:26:51.562Z,17.27
2023-07-03T07:29:18.403Z,21.15
2023-07-03T07:31:44.894Z,18.80
2023-07-03T07:34:12.429Z,23.30
2023-07-03T07:36:40.647Z,14.90
2023-07-03T07:39:08.374Z,18.02
2023-07-03T07:41:35.419Z,22.50
2023-07-03T07:44:02.097Z,19.08
2023-07-03T07:46:31.598Z,17.80
2023-07-03T07:49:00.253Z,9.15
2023-07-03T07:51:27.344Z,17.38
2023-07-03T07:53:54.891Z,15.88
2023-07-03T07:56:23.010Z,18.92
2023-07-03T07:58:50.228Z,18.77
2023-07-03T08:01:17.276Z,13.38
2023-07-03T08:03:44.687Z,20.55
2023-07-03T08:06:11.938Z,11.57
2023-07-03T08:08:38.620Z,11.52
2023-07-03T08:11:07.229Z,13.13
2023-07-03T08:13:34.901Z,18.52
2023-07-03T08:16:01.687Z,14.02
2023-07-03T08:18:28.534Z,22.73
2023-07-03T08:20:55.564Z,13.93
2023-07-03T08:23:22.667Z,11.38
2023-07-03T08:25:55.390Z,14.75
2023-07-03T08:28:23.111Z,14.40
2023-07-03T08:30:50.170Z,9.38
2023-07-03T08:33:17.295Z,14.27
2023-07-03T08:38:14.059Z,11.43
2023-07-03T08:40:42.064Z,13.82
2023-07-03T08:43:12.501Z,10.63
2023-07-03T08:45:43.852Z,11.57
2023-07-03T08:48:16.966Z,12.52
2023-07-03T08:50:47.633Z,10.25
2023-07-03T08:53:19.121Z,12.40
2023-07-03T08:56:21.475Z,13.45
2023-07-03T08:58:51.915Z,9.75
2023-07-03T09:04:24.205Z,9.65
2023-07-03T09:06:59.318Z,14.00
2023-07-03T09:09:40.966Z,14.82
2023-07-03T09:12:29.752Z,13.57
2023-07-03T09:15:07.783Z,9.75
2023-07-03T09:17:35.934Z,13.65
2023-07-03T09:20:05.587Z,14.18
2023-07-03T09:22:40.522Z,15.60
2023-07-03T09:25:15.665Z,14.57
2023-07-03T09:27:42.884Z,14.77
2023-07-03T09:30:15.111Z,12.57
2023-07-03T09:32:41.936Z,15.90
2023-07-03T09:35:17.003Z,25.17
2023-07-03T09:37:47.100Z,16.45
2023-07-03T09:40:24.901Z,13.10
2023-07-03T09:42:52.209Z,24.83
2023-07-03T09:45:22.213Z,14.23
2023-07-03T09:47:51.803Z,9.00
2023-07-03T09:50:27.284Z,13.35
2023-07-03T09:55:27.725Z,15.73
2023-07-03T09:57:54.864Z,14.38
2023-07-03T10:00:24.996Z,12.30
2023-07-03T10:08:03.830Z,12.80
2023-07-03T10:13:15.290Z,23.73
2023-07-03T10:15:43.088Z,10.52
2023-07-03T10:18:21.889Z,14.68
2023-07-03T10:20:51.308Z,10.40
2023-07-03T10:23:40.335Z,13.27
2023-07-03T10:26:29.720Z,13.95
2023-07-03T10:29:04.531Z,17.02
2023-07-03T10:31:37.886Z,16.15
2023-07-03T10:34:13.794Z,9.40
2023-07-03T10:36:42.899Z,7.15
2023-07-03T10:39:19.283Z,8.77
2023-07-03T10:41:51.605Z,10.75
2023-07-03T10:44:23.213Z,11.27
2023-07-03T10:46:59.932Z,9.77
2023-07-03T10:49:30.915Z,10.50
2023-07-03T10:52:22.623Z,12.77
2023-07-03T10:55:25.667Z,11.27
2023-07-03T10:58:01.175Z,8.98
2023-07-03T11:00:39.918Z,9.52
2023-07-03T11:03:31.114Z,9.20
2023-07-03T11:06:33.602Z,10.65
2023-07-03T11:09:23.469Z,9.68
2023-07-03T11:12:16.514Z,10.60
2023-07-03T11:14:46.078Z,13.60
2023-07-03T11:17:26.596Z,8.60
2023-07-03T11:19:53.106Z,11.10
2023-07-03T11:25:11.730Z,9.50
2023-07-03T11:27:54.891Z,8.05
2023-07-03T11:30:22.701Z,11.98
2023-07-03T11:32:51.083Z,10.95
2023-07-03T11:40:37.528Z,16.42
2023-07-03T11:45:40.188Z,12.32
2023-07-03T11:48:39.416Z,11.32
2023-07-03T11:51:15.835Z,8.15
2023-07-03T11:53:57.357Z,8.30
2023-07-03T11:56:45.466Z,12.25
2023-07-03T11:59:24.537Z,9.73
2023-07-03T12:01:52.965Z,11.05
2023-07-03T12:04:47.757Z,8.00
2023-07-03T12:07:22.926Z,13.68
2023-07-03T12:09:50.998Z,10.23
2023-07-03T12:12:26.814Z,7.50
2023-07-03T12:14:59.271Z,7.60
2023-07-03T12:17:28.954Z,8.82
2023-07-03T12:20:07.791Z,8.02
2023-07-03T12:22:46.618Z,8.48
2023-07-03T12:25:19.787Z,10.60
2023-07-03T12:27:47.759Z,10.02
2023-07-03T12:30:29.341Z,12.10
2023-07-03T12:32:58.412Z,7.95
2023-07-03T12:35:35.449Z,9.73
2023-07-03T12:38:11.508Z,6.25
2023-07-03T12:40:45.294Z,8.73
2023-07-03T12:43:18.159Z,6.85
2023-07-03T12:45:52.935Z,6.45
2023-07-03T12:48:21.419Z,9.65
2023-07-03T12:50:49.968Z,13.85
2023-07-03T12:53:19.447Z,8.05
2023-07-03T12:55:51.635Z,8.70
2023-07-03T12:58:20.090Z,5.88
2023-07-03T13:00:47.098Z,7.78
2023-07-03T13:03:16.604Z,9.70
2023-07-03T13:05:43.340Z,10.80
2023-07-03T13:08:16.730Z,7.10
2023-07-03T13:11:00.717Z,9.60
2023-07-03T13:13:27.858Z,12.68
2023-07-03T13:15:54.516Z,10.73
2023-07-03T13:18:23.909Z,7.38
2023-07-03T13:21:01.776Z,8.32
2023-07-03T13:23:37.581Z,4.32
2023-07-03T13:26:08.692Z,10.85
2023-07-03T13:28:42.407Z,8.95
2023-07-03T13:31:14.859Z,7.50
2023-07-03T13:33:43.196Z,6.07
2023-07-03T13:36:22.805Z,5.63
2023-07-03T13:39:18.764Z,7.05
2023-07-03T13:41:47.679Z,18.85
2023-07-03T13:44:16.465Z,7.47
2023-07-03T13:46:44.768Z,7.30
2023-07-03T13:49:15.387Z,6.75
2023-07-03T13:51:43.022Z,5.82
2023-07-03T13:54:12.404Z,8.52
2023-07-03T13:56:43.283Z,5.72
2023-07-03T14:01:38.742Z,6.47
2023-07-03T14:04:06.596Z,7.57
2023-07-03T14:06:33.713Z,9.35
2023-07-03T14:09:00.278Z,6.78
2023-07-03T14:11:26.936Z,4.32
2023-07-03T14:13:54.085Z,5.43
2023-07-03T14:16:20.775Z,5.38
2023-07-03T14:18:47.409Z,6.82
2023-07-03T14:21:16.318Z,7.57
2023-07-03T14:23:43.749Z,5.80
2023-07-03T14:26:12.641Z,2.55
2023-07-03T14:28:40.551Z,5.43
2023-07-03T14:31:09.262Z,6.10
2023-07-03T14:33:36.088Z,4.63
2023-07-03T14:36:02.833Z,4.90
2023-07-03T14:38:29.456Z,7.05
2023-07-03T14:40:57.617Z,5.47
2023-07-03T14:43:24.353Z,4.68
2023-07-03T14:45:51.444Z,4.38
2023-07-03T14:48:18.347Z,7.43
2023-07-03T14:50:45.020Z,2.95
2023-07-03T14:53:11.601Z,3.42
2023-07-03T14:55:38.350Z,2.75
2023-07-03T14:58:09.396Z,3.35
2023-07-03T15:00:38.005Z,6.88
2023-07-03T15:03:04.754Z,3.10
2023-07-03T15:05:31.457Z,6.40
2023-07-03T15:07:58.090Z,8.07
2023-07-03T15:10:24.651Z,4.70
2023-07-03T15:12:51.220Z,3.20
2023-07-03T15:15:17.848Z,3.33
2023-07-03T15:17:44.477Z,4.40
2023-07-03T15:20:11.729Z,2.15
2023-07-03T15:22:38.372Z,4.38
2023-07-03T15:25:05.159Z,2.40
2023-07-03T15:27:31.867Z,3.55
2023-07-03T15:29:58.421Z,2.85
2023-07-03T15:32:25.077Z,4.90
2023-07-03T15:34:54.037Z,4.03
2023-07-03T15:37:21.594Z,4.80
2023-07-03T15:39:48.134Z,5.90
2023-07-03T15:42:15.253Z,5.28
2023-07-03T15:44:42.376Z,5.10
2023-07-03T15:47:09.979Z,4.47
2023-07-03T15:49:37.440Z,9.52
2023-07-03T15:52:05.883Z,5.30
2023-07-03T15:54:35.798Z,4.20
2023-07-03T15:57:04.207Z,4.13
2023-07-03T15:59:31.004Z,4.45
2023-07-03T16:01:58.162Z,4.60
2023-07-03T16:04:26.019Z,3.25
2023-07-03T16:06:52.623Z,5.93
2023-07-03T16:09:19.311Z,14.32
2023-07-03T16:11:45.962Z,4.82
2023-07-03T16:14:12.504Z,2.88
2023-07-03T16:16:39.061Z,3.47
2023-07-03T16:19:05.578Z,5.03
2023-07-03T16:21:34.267Z,8.00
2023-07-03T16:24:03.871Z,4.30
2023-07-03T16:26:31.749Z,5.30
2023-07-03T16:28:58.636Z,5.40
2023-07-03T16:31:28.275Z,3.45
2023-07-03T16:33:57.890Z,3.50
2023-07-03T16:36:27.753Z,8.35
2023-07-03T16:38:56.763Z,3.95
2023-07-03T16:46:11.192Z,4.40
2023-07-03T16:48:58.924Z,4.38
2023-07-03T16:51:45.399Z,3.97
2023-07-03T16:54:31.920Z,5.40
2023-07-03T16:57:18.341Z,7.45
2023-07-03T16:59:51.231Z,3.63
2023-07-03T17:02:17.793Z,2.90
2023-07-03T17:04:44.364Z,2.60
2023-07-03T17:07:10.945Z,2.55
2023-07-03T17:09:37.436Z,2.38
2023-07-03T17:12:04.259Z,4.13
2023-07-03T17:14:32.463Z,3.17
2023-07-03T17:16:58.993Z,6.57
2023-07-03T17:19:25.617Z,2.97
2023-07-03T17:21:52.140Z,6.07
2023-07-03T17:24:18.669Z,5.57
2023-07-03T17:26:45.486Z,3.38
2023-07-03T17:29:12.142Z,5.05
2023-07-03T17:31:38.739Z,2.28
2023-07-03T17:34:05.297Z,2.90
2023-07-03T17:36:31.965Z,4.32
2023-07-03T17:38:58.589Z,5.40
2023-07-03T17:41:25.073Z,4.25
2023-07-03T17:43:52.405Z,5.97
2023-07-03T17:46:19.136Z,5.40
2023-07-03T17:48:45.853Z,4.30
2023-07-03T17:51:12.489Z,4.03
2023-07-03T17:53:40.880Z,3.88
2023-07-03T17:56:07.551Z,4.07
2023-07-03T17:58:34.092Z,4.18
2023-07-03T18:01:02.490Z,7.40
2023-07-03T18:03:29.997Z,4.68
2023-07-03T18:05:57.181Z,5.15
2023-07-03T18:08:25.004Z,6.80
2023-07-03T18:10:51.936Z,2.33
2023-07-03T18:13:18.573Z,4.65
2023-07-03T18:15:54.873Z,5.15
2023-07-03T18:18:21.706Z,4.00
2023-07-03T18:20:49.027Z,3.88
2023-07-03T18:23:15.645Z,6.72
2023-07-03T18:25:42.184Z,4.88
2023-07-03T18:28:09.111Z,4.75
2023-07-03T18:30:35.800Z,3.97
2023-07-03T18:33:02.404Z,3.33
2023-07-03T18:35:29.201Z,4.65
2023-07-03T18:37:55.721Z,10.38
2023-07-03T18:40:22.285Z,5.82
2023-07-03T18:42:48.805Z,5.97
2023-07-03T18:45:15.481Z,5.18
2023-07-03T18:47:42.024Z,8.45
2023-07-03T18:50:09.730Z,7.00
2023-07-03T18:52:36.239Z,7.47
2023-07-03T18:55:02.901Z,4.53
2023-07-03T18:57:29.365Z,3.42
2023-07-03T18:59:56.011Z,7.82
2023-07-03T19:02:22.611Z,7.43
2023-07-03T19:04:49.219Z,6.75
2023-07-03T19:07:15.751Z,9.48
2023-07-03T19:09:42.332Z,2.95
2023-07-03T19:12:09.145Z,4.47
2023-07-03T19:14:36.441Z,3.33
2023-07-03T19:17:03.125Z,7.43
2023-07-03T19:19:29.698Z,4.78
2023-07-03T19:21:56.362Z,7.20
2023-07-03T19:24:23.265Z,7.80
2023-07-03T19:26:50.387Z,8.52
2023-07-03T19:29:17.290Z,4.10
2023-07-03T19:31:44.226Z,4.45
2023-07-03T19:34:10.864Z,3.17
2023-07-03T19:36:37.579Z,4.07
2023-07-03T19:39:04.673Z,10.15
2023-07-03T19:41:31.412Z,7.95
2023-07-03T19:43:58.108Z,3.75
2023-07-03T19:46:24.916Z,3.90
2023-07-03T19:48:51.518Z,9.52
2023-07-03T19:51:18.048Z,3.85
2023-07-03T19:53:44.552Z,5.45
2023-07-03T19:56:16.281Z,6.18
2023-07-03T19:58:43.657Z,3.88
2023-07-03T20:01:12.128Z,7.82
2023-07-03T20:03:39.802Z,4.03
2023-07-03T20:06:18.734Z,2.60
2023-07-03T20:08:50.153Z,5.82
2023-07-03T20:11:17.698Z,5.05
2023-07-03T20:13:46.482Z,3.10
2023-07-03T20:16:13.174Z,5.00
2023-07-03T20:18:39.747Z,3.53
2023-07-03T20:21:08.435Z,4.28
2023-07-03T20:23:35.757Z,2.38
2023-07-03T20:26:04.525Z,3.53
2023-07-03T20:28:31.520Z,3.00
2023-07-03T20:30:58.174Z,4.10
2023-07-03T20:33:24.861Z,5.00
2023-07-03T20:36:13.842Z,3.50
2023-07-03T20:38:40.556Z,5.57
2023-07-03T20:41:10.171Z,4.57
2023-07-03T20:43:39.510Z,9.68
2023-07-03T20:46:15.021Z,6.15
2023-07-03T20:48:42.548Z,4.47
2023-07-03T20:51:13.452Z,3.67
2023-07-03T20:53:53.976Z,6.47
2023-07-03T20:56:31.880Z,5.43
2023-07-03T20:59:00.021Z,4.05
2023-07-03T21:01:28.312Z,6.30
2023-07-03T21:03:56.129Z,5.25
2023-07-03T21:06:25.788Z,2.92
2023-07-03T21:08:52.757Z,5.07
2023-07-03T21:11:21.306Z,2.90
2023-07-03T21:13:53.228Z,6.68
2023-07-03T21:16:22.536Z,4.50
2023-07-03T21:18:50.148Z,4.38
2023-07-03T21:21:19.341Z,4.55
2023-07-03T21:23:46.490Z,4.70
2023-07-03T21:26:16.200Z,7.70
2023-07-03T21:28:42.772Z,3.83
2023-07-03T21:31:13.525Z,5.97
2023-07-03T21:33:40.781Z,4.68
2023-07-03T21:36:11.736Z,4.07
2023-07-03T21:38:39.500Z,3.83
2023-07-03T21:41:06.667Z,4.95
2023-07-03T21:43:33.667Z,4.15
2023-07-03T21:46:12.680Z,4.70
2023-07-03T21:48:41.663Z,5.35
2023-07-03T21:51:11.701Z,7.47
2023-07-03T21:53:39.017Z,6.40
2023-07-03T21:56:06.781Z,5.00
2023-07-03T21:58:34.239Z,3.85
2023-07-03T22:01:02.157Z,6.07
2023-07-03T22:03:29.246Z,6.35
2023-07-03T22:05:55.973Z,6.85
2023-07-03T22:08:23.418Z,6.53
2023-07-03T22:10:50.679Z,5.05
2023-07-03T22:13:17.388Z,6.07
2023-07-03T22:15:44.481Z,6.35
2023-07-03T22:18:11.190Z,4.25
2023-07-03T22:20:37.660Z,5.55
2023-07-03T22:23:05.155Z,8.45
2023-07-03T22:25:31.623Z,5.18
2023-07-03T22:27:59.415Z,3.67
2023-07-03T22:30:25.915Z,6.07
2023-07-03T22:32:52.492Z,5.20
2023-07-03T22:35:19.006Z,5.25
2023-07-03T22:37:45.632Z,4.85
2023-07-03T22:40:13.647Z,4.80
2023-07-03T22:42:41.319Z,7.18
2023-07-03T22:45:10.462Z,5.35
2023-07-03T22:47:37.193Z,4.65
2023-07-03T22:50:03.900Z,5.97
2023-07-03T22:52:31.514Z,5.50
2023-07-03T22:54:59.827Z,5.18
2023-07-03T22:57:27.065Z,3.85
2023-07-03T22:59:54.745Z,5.13
2023-07-03T23:02:21.695Z,4.63
2023-07-03T23:04:48.653Z,3.17
2023-07-03T23:07:15.344Z,8.02
2023-07-03T23:09:43.960Z,5.45
2023-07-03T23:12:10.996Z,5.50
2023-07-03T23:14:37.620Z,6.32
2023-07-03T23:17:04.439Z,6.28
2023-07-03T23:19:32.640Z,7.68
2023-07-03T23:21:59.283Z,6.60
2023-07-03T23:24:26.253Z,3.47
2023-07-03T23:26:53.445Z,4.65
2023-07-03T23:29:21.955Z,4.75
2023-07-03T23:31:49.092Z,3.92
2023-07-03T23:34:15.790Z,4.55
2023-07-03T23:36:42.484Z,6.85
2023-07-03T23:39:11.956Z,4.97
2023-07-03T23:41:38.585Z,6.77
2023-07-03T23:44:05.759Z,4.82
2023-07-03T23:46:33.181Z,5.78
2023-07-03T23:49:03.194Z,4.25
2023-07-03T23:51:32.818Z,5.40
2023-07-03T23:53:59.975Z,5.55
2023-07-03T23:56:26.537Z,5.47
2023-07-03T23:58:53.011Z,4.75
